Time;durP1;ratioP1;P1;durP2;ratioP2;P2;SDS_P1;SDS_P2;PMS_P1;PMS_P2;Temp;Humidity;BMP_temperature;BMP_pressure;BME280_temperature;BME280_humidity;BME280_pressure;Samples;Min_cycle;Max_cycle;Signal;HPM_P1;HPM_P2
2023/08/06 00:00:26;;;;;;;17.15;9.50;;;19.50;99.90;;;;;;5096797;28;20501;-58
2023/08/06 00:02:52;;;;;;;22.67;10.70;;;19.40;99.90;;;;;;5096584;28;20051;-58
2023/08/06 00:05:20;;;;;;;17.85;9.77;;;19.40;99.90;;;;;;5096530;28;20063;-58
2023/08/06 00:07:49;;;;;;;17.15;9.70;;;19.40;99.90;;;;;;5096641;28;20071;-58
2023/08/06 00:10:16;;;;;;;14.48;9.02;;;19.40;99.90;;;;;;5096452;28;20162;-58
2023/08/06 00:12:42;;;;;;;13.82;9.32;;;19.30;99.90;;;;;;5096377;28;20019;-58
2023/08/06 00:15:09;;;;;;;17.70;9.85;;;19.30;99.90;;;;;;5096566;28;20028;-58
2023/08/06 00:17:36;;;;;;;14.95;9.68;;;19.30;99.90;;;;;;5096477;28;20373;-58
2023/08/06 00:20:04;;;;;;;15.30;8.95;;;19.40;99.90;;;;;;5078358;28;20036;-58
2023/08/06 00:22:32;;;;;;;16.17;8.98;;;19.40;99.90;;;;;;5096405;28;20225;-58
2023/08/06 00:24:58;;;;;;;13.30;8.52;;;19.40;99.90;;;;;;5096059;28;20028;-58
2023/08/06 00:27:24;;;;;;;20.05;9.88;;;19.50;99.90;;;;;;5096382;28;20070;-59
2023/08/06 00:29:51;;;;;;;12.88;9.15;;;19.40;99.90;;;;;;5077881;28;20035;-58
2023/08/06 00:32:18;;;;;;;18.38;9.98;;;19.40;99.90;;;;;;5096191;28;20020;-58
2023/08/06 00:34:44;;;;;;;20.85;10.40;;;19.40;99.90;;;;;;5095620;28;20392;-58
2023/08/06 00:37:10;;;;;;;25.73;9.48;;;19.30;99.90;;;;;;5077184;28;20028;-58
2023/08/06 00:39:36;;;;;;;26.85;10.82;;;19.30;99.90;;;;;;5096044;28;20103;-58
2023/08/06 00:42:02;;;;;;;26.17;9.80;;;19.30;99.90;;;;;;5096260;28;20104;-58
2023/08/06 00:44:28;;;;;;;31.83;10.15;;;19.30;99.90;;;;;;5077727;28;20077;-58
2023/08/06 00:46:54;;;;;;;22.13;9.10;;;19.30;99.90;;;;;;5077682;28;20047;-58
2023/08/06 00:49:20;;;;;;;26.92;9.73;;;19.40;99.90;;;;;;5095872;28;20115;-58
2023/08/06 00:51:47;;;;;;;16.80;8.82;;;19.40;99.90;;;;;;5095777;28;20396;-58
2023/08/06 00:54:13;;;;;;;18.80;8.77;;;19.30;99.90;;;;;;5095808;28;20020;-58
2023/08/06 00:56:42;;;;;;;15.40;8.73;;;19.30;99.90;;;;;;5095794;28;20465;-58
2023/08/06 00:59:08;;;;;;;14.55;9.25;;;19.30;99.90;;;;;;5095768;28;20093;-58
2023/08/06 01:01:34;;;;;;;15.85;9.45;;;19.30;99.90;;;;;;5095501;28;20055;-58
2023/08/06 01:04:01;;;;;;;20.95;10.07;;;19.20;99.90;;;;;;5095555;28;20362;-59
2023/08/06 01:06:49;;;;;;;20.48;10.18;;;19.30;99.90;;;;;;5095534;28;20576;-58
2023/08/06 01:09:32;;;;;;;18.55;8.60;;;19.20;99.90;;;;;;5077155;28;20067;-58
2023/08/06 01:12:20;;;;;;;10.98;8.88;;;19.30;99.90;;;;;;5077073;28;20028;-58
2023/08/06 01:14:58;;;;;;;13.52;8.48;;;19.30;99.90;;;;;;5077098;28;20028;-58
2023/08/06 01:17:26;;;;;;;13.68;7.00;;;19.40;99.90;;;;;;5095447;28;20028;-58
2023/08/06 01:19:52;;;;;;;9.13;6.65;;;19.40;99.90;;;;;;5077326;28;20122;-58
2023/08/06 01:22:19;;;;;;;13.77;8.00;;;19.50;99.90;;;;;;5095247;28;20367;-58
2023/08/06 01:24:50;;;;;;;13.15;7.28;;;19.50;99.90;;;;;;5095495;28;20028;-58
2023/08/06 01:27:34;;;;;;;12.10;6.68;;;19.40;99.90;;;;;;5095083;28;20028;-58
2023/08/06 01:30:11;;;;;;;13.82;6.47;;;19.40;99.90;;;;;;5076684;28;20032;-58
2023/08/06 01:32:42;;;;;;;9.80;6.25;;;19.40;99.90;;;;;;5076837;28;20516;-58
2023/08/06 01:35:10;;;;;;;;;;;19.30;99.90;;;;;;5095533;28;20174;-58
2023/08/06 01:37:37;;;;;;;8.63;5.13;;;19.40;99.90;;;;;;5076709;28;19943;-58
2023/08/06 01:40:13;;;;;;;10.23;5.10;;;19.40;99.90;;;;;;5076691;28;20032;-58
2023/08/06 01:42:39;;;;;;;9.90;5.25;;;19.50;99.90;;;;;;5094866;28;20508;-58
2023/08/06 01:45:07;;;;;;;11.32;4.82;;;19.50;99.90;;;;;;5094775;28;20035;-58
2023/08/06 01:47:33;;;;;;;10.55;4.60;;;19.50;99.90;;;;;;5094516;28;20032;-58
2023/08/06 01:50:00;;;;;;;6.15;3.40;;;19.50;99.90;;;;;;5076288;28;20507;-58
2023/08/06 01:52:27;;;;;;;5.80;4.03;;;19.50;99.90;;;;;;5094671;28;20059;-58
2023/08/06 01:54:53;;;;;;;6.47;3.83;;;19.60;99.90;;;;;;5094964;28;20012;-58
2023/08/06 01:57:19;;;;;;;5.40;3.95;;;19.60;99.90;;;;;;5094684;28;20020;-58
2023/08/06 01:59:45;;;;;;;8.32;3.95;;;19.50;99.90;;;;;;5076346;28;20032;-58
2023/08/06 02:02:11;;;;;;;7.00;3.78;;;19.40;99.90;;;;;;5094559;28;20028;-58
2023/08/06 02:04:37;;;;;;;5.95;3.47;;;19.40;99.90;;;;;;5094335;28;20505;-58
2023/08/06 02:07:04;;;;;;;5.50;3.47;;;19.40;99.90;;;;;;5094565;28;20157;-58
2023/08/06 02:09:30;;;;;;;9.07;3.63;;;19.40;99.90;;;;;;5076447;28;20043;-58
2023/08/06 02:11:56;;;;;;;9.77;3.80;;;19.40;99.90;;;;;;5094319;28;20141;-58
2023/08/06 02:14:22;;;;;;;10.63;3.97;;;19.40;99.90;;;;;;5076323;28;20040;-58
2023/08/06 02:16:49;;;;;;;8.90;3.90;;;19.30;99.90;;;;;;5076359;28;20020;-58
2023/08/06 02:19:15;;;;;;;13.73;3.72;;;19.20;99.90;;;;;;5094379;28;20020;-58
2023/08/06 02:21:41;;;;;;;5.60;3.65;;;19.20;99.90;;;;;;5094540;28;20103;-58
2023/08/06 02:24:07;;;;;;;7.45;3.20;;;19.10;99.90;;;;;;5094504;28;20079;-58
2023/08/06 02:26:33;;;;;;;7.90;3.60;;;19.10;99.90;;;;;;5094310;28;20024;-58
2023/08/06 02:28:59;;;;;;;8.57;3.78;;;19.10;99.90;;;;;;5076209;28;20032;-58
2023/08/06 02:31:25;;;;;;;9.60;3.90;;;19.00;99.90;;;;;;5094456;28;20080;-58
2023/08/06 02:33:51;;;;;;;8.50;3.10;;;19.10;99.90;;;;;;5094281;28;20032;-58
2023/08/06 02:36:17;;;;;;;6.80;3.58;;;19.10;99.90;;;;;;5094184;28;20496;-58
2023/08/06 02:38:43;;;;;;;7.32;3.78;;;19.20;99.90;;;;;;5094385;28;20020;-58
2023/08/06 02:41:10;;;;;;;5.32;3.72;;;19.20;99.90;;;;;;5094003;28;20031;-58
2023/08/06 02:43:35;;;;;;;9.00;4.03;;;19.10;99.90;;;;;;5076271;28;20039;-58
2023/08/06 02:46:02;;;;;;;5.72;3.83;;;19.10;99.90;;;;;;5094382;28;20028;-58
2023/08/06 02:48:28;;;;;;;9.23;4.00;;;19.10;99.90;;;;;;5075736;28;20035;-58
2023/08/06 02:50:58;;;;;;;6.80;3.60;;;19.00;99.90;;;;;;5094227;28;20500;-58
2023/08/06 02:53:24;;;;;;;7.57;4.10;;;19.00;99.90;;;;;;5076153;28;20024;-58
2023/08/06 02:55:50;;;;;;;7.47;4.70;;;18.90;99.90;;;;;;5075969;28;20047;-58
2023/08/06 02:58:23;;;;;;;13.07;5.90;;;18.90;99.90;;;;;;5076269;28;20028;-58
2023/08/06 03:01:04;;;;;;;9.10;5.28;;;18.90;99.90;;;;;;5079434;28;20040;-58
2023/08/06 03:03:35;;;;;;;11.38;5.68;;;18.80;99.90;;;;;;5079698;28;20070;-58
2023/08/06 03:06:03;;;;;;;11.95;5.82;;;18.80;99.90;;;;;;5060979;28;20075;-58
2023/08/06 03:08:47;;;;;;;16.65;6.65;;;18.80;99.90;;;;;;5059521;28;20067;-58
2023/08/06 03:11:13;;;;;;;16.92;7.03;;;18.90;99.90;;;;;;5077156;28;20040;-58
2023/08/06 03:13:40;;;;;;;16.13;6.78;;;18.80;99.90;;;;;;5059426;28;20028;-58
2023/08/06 03:16:06;;;;;;;15.48;7.22;;;18.80;99.90;;;;;;5059301;28;20454;-58
2023/08/06 03:18:33;;;;;;;14.35;7.28;;;18.90;99.90;;;;;;5059373;28;20559;-58
2023/08/06 03:21:02;;;;;;;19.90;7.07;;;18.90;99.90;;;;;;5059361;28;20039;-58
2023/08/06 03:23:30;;;;;;;16.70;6.72;;;18.90;99.90;;;;;;5059124;28;20032;-58
2023/08/06 03:26:00;;;;;;;19.77;7.25;;;18.90;99.90;;;;;;5059239;28;20369;-58
2023/08/06 03:28:30;;;;;;;23.15;7.18;;;18.80;99.90;;;;;;5059279;28;20039;-58
2023/08/06 03:31:01;;;;;;;16.08;5.78;;;18.90;99.90;;;;;;5058879;28;20064;-58
2023/08/06 03:33:30;;;;;;;17.23;5.50;;;18.90;99.90;;;;;;5059151;28;20028;-58
2023/08/06 03:35:58;;;;;;;17.85;5.90;;;18.90;99.90;;;;;;5059056;28;20039;-58
2023/08/06 03:38:24;;;;;;;8.98;5.05;;;18.90;99.90;;;;;;5076951;28;20020;-58
2023/08/06 03:40:50;;;;;;;15.73;5.13;;;18.80;99.90;;;;;;5076941;28;20119;-58
2023/08/06 03:43:16;;;;;;;9.05;4.13;;;18.90;99.90;;;;;;5076921;28;20032;-58
2023/08/06 03:45:42;;;;;;;11.48;4.75;;;18.90;99.90;;;;;;5076358;28;20123;-58
2023/08/06 03:48:10;;;;;;;8.63;3.72;;;18.90;99.90;;;;;;5058737;28;20024;-58
2023/08/06 03:50:36;;;;;;;8.15;4.00;;;18.90;99.90;;;;;;5076520;28;20039;-58
2023/08/06 03:53:02;;;;;;;7.30;3.97;;;19.00;99.90;;;;;;5076606;28;20020;-58
2023/08/06 03:55:28;;;;;;;10.73;4.20;;;19.10;99.90;;;;;;5058715;28;20033;-59
2023/08/06 03:57:54;;;;;;;8.25;3.40;;;19.10;99.90;;;;;;5058700;28;20028;-58
2023/08/06 04:00:21;;;;;;;5.70;3.70;;;19.10;99.90;;;;;;5058564;28;20389;-58
2023/08/06 04:02:52;;;;;;;8.95;4.72;;;19.10;99.90;;;;;;5058564;28;20032;-58
2023/08/06 04:05:18;;;;;;;5.63;4.15;;;19.00;99.90;;;;;;5070564;28;20054;-58
2023/08/06 04:07:43;;;;;;;6.55;3.55;;;18.90;99.90;;;;;;5096447;28;20028;-58
2023/08/06 04:10:10;;;;;;;8.82;3.60;;;18.90;99.90;;;;;;5078080;28;20043;-58
2023/08/06 04:12:38;;;;;;;5.63;4.18;;;19.00;99.90;;;;;;5078238;28;20060;-58
2023/08/06 04:15:04;;;;;;;9.20;3.90;;;18.90;99.90;;;;;;5096513;28;20108;-58
2023/08/06 04:17:30;;;;;;;7.10;4.10;;;19.00;99.90;;;;;;5078317;28;20031;-58
2023/08/06 04:19:59;;;;;;;6.22;3.47;;;19.00;99.90;;;;;;5096201;28;20016;-58
2023/08/06 04:22:25;;;;;;;6.22;3.60;;;19.10;99.90;;;;;;5096357;28;20028;-58
2023/08/06 04:24:51;;;;;;;4.88;4.03;;;19.00;99.90;;;;;;5096291;28;20111;-58
2023/08/06 04:27:20;;;;;;;6.78;3.80;;;18.90;99.90;;;;;;5078418;28;20075;-58
2023/08/06 04:29:47;;;;;;;7.00;4.10;;;18.90;99.90;;;;;;5078221;28;20035;-58
2023/08/06 04:32:14;;;;;;;7.45;3.90;;;18.90;99.90;;;;;;5078004;28;20028;-58
2023/08/06 04:34:45;;;;;;;6.40;3.53;;;19.00;99.90;;;;;;5077784;28;20031;-58
2023/08/06 04:37:11;;;;;;;8.80;4.03;;;19.00;99.90;;;;;;5096090;28;20028;-58
2023/08/06 04:39:37;;;;;;;9.00;3.78;;;19.10;99.90;;;;;;5077878;28;20169;-58
2023/08/06 04:42:04;;;;;;;8.18;3.80;;;19.20;99.90;;;;;;5077681;28;20389;-58
2023/08/06 04:44:30;;;;;;;4.55;3.25;;;19.20;99.90;;;;;;5077899;28;20028;-58
2023/08/06 04:46:56;;;;;;;7.50;3.83;;;19.30;99.90;;;;;;5077740;28;20397;-58
2023/08/06 04:49:22;;;;;;;6.40;2.80;;;19.20;99.90;;;;;;5095680;28;20052;-58
2023/08/06 04:51:48;;;;;;;10.90;3.72;;;19.20;99.90;;;;;;5095782;28;20028;-58
2023/08/06 04:54:14;;;;;;;5.00;2.85;;;19.20;99.90;;;;;;5095903;28;20024;-58
2023/08/06 04:56:40;;;;;;;5.20;2.90;;;19.30;99.90;;;;;;5077422;28;20028;-58
2023/08/06 04:59:06;;;;;;;6.22;3.28;;;19.20;99.90;;;;;;5095807;28;20020;-58
2023/08/06 05:01:32;;;;;;;12.90;3.00;;;19.10;99.90;;;;;;5077435;28;20032;-58
2023/08/06 05:03:58;;;;;;;8.23;2.78;;;19.20;99.90;;;;;;5095264;28;20385;-59
2023/08/06 05:06:24;;;;;;;4.22;2.30;;;19.20;99.90;;;;;;5095650;28;20032;-58
2023/08/06 05:08:50;;;;;;;9.23;3.60;;;19.20;99.90;;;;;;5095758;28;20020;-58
2023/08/06 05:11:16;;;;;;;5.90;2.92;;;19.30;99.90;;;;;;5095111;28;20401;-58
2023/08/06 05:13:42;;;;;;;5.95;2.25;;;19.20;99.90;;;;;;5077189;28;20040;-58
2023/08/06 05:16:08;;;;;;;3.20;1.80;;;19.30;99.90;;;;;;5095222;28;20020;-58
2023/08/06 05:18:34;;;;;;;6.50;2.22;;;19.40;99.90;;;;;;5095267;28;20031;-58
2023/08/06 05:21:00;;;;;;;3.47;2.00;;;19.30;99.90;;;;;;5094992;28;20028;-58
2023/08/06 05:23:26;;;;;;;2.17;1.60;;;19.40;99.90;;;;;;5094931;28;20497;-58
2023/08/06 05:25:52;;;;;;;3.40;2.20;;;19.50;99.90;;;;;;5095201;28;20103;-58
2023/08/06 05:28:18;;;;;;;2.40;1.90;;;19.60;99.90;;;;;;5095190;28;20061;-58
2023/08/06 05:30:44;;;;;;;2.55;1.80;;;19.60;99.90;;;;;;5094889;28;20028;-58
2023/08/06 05:33:10;;;;;;;4.80;1.90;;;19.60;99.90;;;;;;5095186;28;20027;-58
2023/08/06 05:35:36;;;;;;;2.35;1.70;;;19.70;99.90;;;;;;5095136;28;20031;-58
2023/08/06 05:38:02;;;;;;;6.78;1.90;;;19.80;99.90;;;;;;5094874;28;20034;-58
2023/08/06 05:40:27;;;;;;;2.97;2.05;;;19.80;99.90;;;;;;5094854;28;20035;-58
2023/08/06 05:42:54;;;;;;;4.25;1.40;;;19.90;99.90;;;;;;5094971;28;20035;-58
2023/08/06 05:45:20;;;;;;;4.55;2.17;;;20.00;99.90;;;;;;5094778;28;20056;-58
2023/08/06 05:47:48;;;;;;;6.10;2.20;;;20.10;99.90;;;;;;5094717;28;20043;-58
2023/08/06 05:50:14;;;;;;;2.22;1.48;;;20.10;99.90;;;;;;5094661;28;20425;-58
2023/08/06 05:52:40;;;;;;;11.30;2.83;;;20.00;99.90;;;;;;5094601;28;20107;-58
2023/08/06 05:55:06;;;;;;;11.50;2.80;;;20.10;99.90;;;;;;5095027;28;20660;-58
2023/08/06 05:57:32;;;;;;;14.23;2.65;;;20.10;99.90;;;;;;5094941;28;20084;-58
2023/08/06 05:59:58;;;;;;;10.88;2.92;;;20.20;99.90;;;;;;5094521;28;20035;-58
2023/08/06 06:02:24;;;;;;;7.53;2.50;;;20.30;99.90;;;;;;5094682;28;20024;-58
2023/08/06 06:04:50;;;;;;;7.50;2.30;;;20.30;99.90;;;;;;5091889;28;20076;-59
2023/08/06 06:07:16;;;;;;;5.53;2.22;;;20.40;99.90;;;;;;5084785;28;20052;-59
2023/08/06 06:09:42;;;;;;;3.97;1.63;;;20.20;99.90;;;;;;5091025;28;20052;-59
2023/08/06 06:12:08;;;;;;;3.33;1.73;;;20.40;99.90;;;;;;5079392;28;20510;-58
2023/08/06 06:14:34;;;;;;;3.13;2.45;;;20.40;99.90;;;;;;5072248;28;20401;-58
2023/08/06 06:17:00;;;;;;;2.03;1.60;;;20.20;99.90;;;;;;5061656;28;20045;-58
2023/08/06 06:19:26;;;;;;;3.08;1.70;;;20.20;99.90;;;;;;5084543;28;20052;-58
2023/08/06 06:21:53;;;;;;;3.83;1.98;;;20.30;99.90;;;;;;5088641;28;20040;-58
2023/08/06 06:24:19;;;;;;;4.97;2.20;;;20.50;99.90;;;;;;5088659;28;20044;-58
2023/08/06 06:26:45;;;;;;;6.38;2.20;;;20.60;99.90;;;;;;5084112;28;20603;-59
2023/08/06 06:29:11;;;;;;;2.22;2.03;;;20.70;99.90;;;;;;5086381;28;20050;-58
2023/08/06 06:31:37;;;;;;;5.60;1.60;;;20.90;99.90;;;;;;5086547;28;20113;-59
2023/08/06 06:34:03;;;;;;;3.13;1.80;;;20.90;99.90;;;;;;5087806;28;20036;-58
2023/08/06 06:36:29;;;;;;;3.05;1.60;;;21.00;99.90;;;;;;5086637;28;20051;-59
2023/08/06 06:38:55;;;;;;;3.70;1.92;;;21.10;99.90;;;;;;5088503;28;20370;-59
2023/08/06 06:41:21;;;;;;;2.78;2.15;;;21.20;99.90;;;;;;5089124;28;20447;-58
2023/08/06 06:43:47;;;;;;;1.90;1.75;;;21.30;99.90;;;;;;5087681;28;20036;-59
2023/08/06 06:46:13;;;;;;;2.90;2.15;;;21.30;99.90;;;;;;5086932;28;21537;-59
2023/08/06 06:48:39;;;;;;;3.17;2.00;;;21.30;99.90;;;;;;5085743;28;20095;-59
2023/08/06 06:51:05;;;;;;;2.30;1.60;;;21.30;99.90;;;;;;5086967;28;20113;-59
2023/08/06 06:53:31;;;;;;;7.95;1.92;;;21.30;99.90;;;;;;5085722;28;20496;-58
2023/08/06 06:56:03;;;;;;;4.03;2.13;;;21.40;99.90;;;;;;5085226;28;20401;-58
2023/08/06 06:58:29;;;;;;;3.90;1.67;;;21.50;99.90;;;;;;5084370;28;20064;-58
2023/08/06 07:00:55;;;;;;;2.17;1.77;;;21.60;99.90;;;;;;5076695;28;20505;-59
2023/08/06 07:03:21;;;;;;;4.53;1.40;;;21.80;99.90;;;;;;5085823;28;20051;-59
2023/08/06 07:05:47;;;;;;;3.33;1.67;;;22.00;99.90;;;;;;5084400;28;20040;-58
2023/08/06 07:08:13;;;;;;;1.20;1.10;;;22.40;99.90;;;;;;5083731;28;20052;-58
2023/08/06 07:10:41;;;;;;;2.65;1.33;;;22.60;99.90;;;;;;5082150;28;20079;-58
2023/08/06 07:13:08;;;;;;;1.48;1.10;;;22.50;99.90;;;;;;5082469;28;20040;-59
2023/08/06 07:15:34;;;;;;;2.50;1.40;;;22.50;99.90;;;;;;5081976;28;20032;-58
2023/08/06 07:18:00;;;;;;;3.95;1.08;;;22.70;99.90;;;;;;5072583;28;20066;-58
2023/08/06 07:20:29;;;;;;;1.23;1.00;;;22.80;99.90;;;;;;5062875;28;20045;-59
2023/08/06 07:22:59;;;;;;;1.52;1.30;;;23.00;99.90;;;;;;5064325;28;20076;-58
2023/08/06 07:25:25;;;;;;;2.83;2.03;;;23.10;99.90;;;;;;5076315;28;20071;-59
2023/08/06 07:27:50;;;;;;;2.13;1.25;;;23.30;99.90;;;;;;5078626;28;20024;-59
2023/08/06 07:30:16;;;;;;;3.53;1.65;;;23.20;99.90;;;;;;5072398;28;20048;-59
2023/08/06 07:32:42;;;;;;;3.95;1.58;;;23.40;99.90;;;;;;5076345;28;20052;-59
2023/08/06 07:35:12;;;;;;;2.17;1.40;;;23.50;99.90;;;;;;5062251;28;20041;-58
2023/08/06 07:37:39;;;;;;;2.73;1.40;;;23.60;99.90;;;;;;5032517;28;20040;-59
2023/08/06 07:40:05;;;;;;;3.63;1.05;;;23.60;99.20;;;;;;5076992;28;20032;-58
2023/08/06 07:42:31;;;;;;;4.43;1.13;;;23.70;98.90;;;;;;5073677;28;20040;-58
2023/08/06 07:44:58;;;;;;;1.50;1.02;;;23.70;98.90;;;;;;5076865;28;20819;-58
2023/08/06 07:47:25;;;;;;;4.05;1.35;;;23.70;98.80;;;;;;5033000;28;20297;-58
2023/08/06 07:49:51;;;;;;;5.40;1.65;;;23.80;99.50;;;;;;5048094;28;21068;-59
2023/08/06 07:52:16;;;;;;;3.20;1.48;;;24.00;99.70;;;;;;5044333;28;21977;-59
2023/08/06 07:54:42;;;;;;;1.25;1.00;;;24.00;97.80;;;;;;5068003;28;22494;-59
2023/08/06 07:57:08;;;;;;;1.60;1.50;;;23.80;96.90;;;;;;5072660;28;22767;-58
2023/08/06 07:59:34;;;;;;;2.47;1.10;;;24.10;97.20;;;;;;5073248;28;23926;-59
2023/08/06 08:02:01;;;;;;;2.92;1.02;;;24.10;96.10;;;;;;5067110;28;24484;-59
2023/08/06 08:04:27;;;;;;;3.55;1.58;;;24.20;97.10;;;;;;5029274;28;26879;-59
2023/08/06 08:06:53;;;;;;;4.97;1.63;;;23.70;97.40;;;;;;5072997;28;28056;-58
2023/08/06 08:09:19;;;;;;;1.77;1.20;;;23.90;98.00;;;;;;5063958;28;28839;-59
2023/08/06 08:11:45;;;;;;;2.60;1.23;;;23.90;96.50;;;;;;5072199;28;25175;-58
2023/08/06 08:14:11;;;;;;;1.63;1.20;;;23.80;96.20;;;;;;5069565;28;30101;-59
2023/08/06 08:16:37;;;;;;;3.10;1.55;;;23.70;97.30;;;;;;5053756;28;25563;-58
2023/08/06 08:19:03;;;;;;;1.77;1.42;;;23.70;96.60;;;;;;5060801;28;25579;-59
2023/08/06 08:21:29;;;;;;;2.75;1.35;;;23.80;97.00;;;;;;5066426;28;31470;-59
2023/08/06 08:23:55;;;;;;;5.07;1.33;;;24.10;98.90;;;;;;5047195;28;31961;-59
2023/08/06 08:26:21;;;;;;;1.63;1.52;;;24.30;96.80;;;;;;5059715;28;33008;-59
2023/08/06 08:28:47;;;;;;;3.80;2.17;;;24.50;96.40;;;;;;5059512;28;33205;-58
2023/08/06 08:31:13;;;;;;;2.60;1.20;;;24.80;95.70;;;;;;5053394;28;24824;-58
2023/08/06 08:33:39;;;;;;;1.48;1.20;;;25.10;93.90;;;;;;5054282;28;24870;-59
2023/08/06 08:36:06;;;;;;;2.00;1.33;;;25.40;93.00;;;;;;5064428;28;36146;-58
2023/08/06 08:38:31;;;;;;;1.55;1.30;;;25.60;91.70;;;;;;5060410;28;36136;-58
2023/08/06 08:40:57;;;;;;;2.72;1.10;;;25.70;92.50;;;;;;5062376;28;35759;-58
2023/08/06 08:43:24;;;;;;;3.13;1.10;;;26.00;92.50;;;;;;5051654;28;37267;-59
2023/08/06 08:45:51;;;;;;;1.52;1.05;;;26.40;92.30;;;;;;5062302;28;24933;-58
2023/08/06 08:48:19;;;;;;;3.65;2.17;;;26.80;88.90;;;;;;5063648;28;24849;-58
2023/08/06 08:50:47;;;;;;;4.20;1.30;;;27.00;82.60;;;;;;5051685;28;38257;-58
2023/08/06 08:53:17;;;;;;;3.35;1.13;;;27.30;82.50;;;;;;5041249;28;37636;-59
2023/08/06 08:55:47;;;;;;;1.58;1.10;;;27.10;80.00;;;;;;5059089;28;38343;-59
2023/08/06 08:58:14;;;;;;;3.17;1.00;;;27.50;83.70;;;;;;5053666;28;24955;-58
2023/08/06 09:00:50;;;;;;;2.78;1.17;;;26.90;75.70;;;;;;5052669;28;38604;-59
2023/08/06 09:03:17;;;;;;;3.08;1.35;;;27.00;76.10;;;;;;5018682;28;39585;-58
2023/08/06 09:05:45;;;;;;;2.13;1.50;;;27.10;77.70;;;;;;5017090;28;25021;-58
2023/08/06 09:08:16;;;;;;;2.10;1.50;;;27.20;72.90;;;;;;5044492;28;24968;-59
2023/08/06 09:10:43;;;;;;;1.67;1.50;;;27.40;73.20;;;;;;5055133;28;41160;-58
2023/08/06 09:13:12;;;;;;;1.75;1.58;;;26.80;71.00;;;;;;5044104;28;25209;-59
2023/08/06 09:15:38;;;;;;;3.25;2.00;;;27.40;74.40;;;;;;5019862;28;24829;-58
2023/08/06 09:18:10;;;;;;;3.53;1.98;;;27.70;71.20;;;;;;5019611;28;23198;-58
2023/08/06 09:20:38;;;;;;;1.80;0.80;;;28.20;70.20;;;;;;5047155;28;22953;-58
2023/08/06 09:23:11;;;;;;;2.70;1.00;;;28.40;65.40;;;;;;5053691;28;23499;-59
2023/08/06 09:25:42;;;;;;;1.88;0.90;;;28.70;71.20;;;;;;5023593;28;23777;-58
2023/08/06 09:28:09;;;;;;;1.08;0.98;;;29.00;65.80;;;;;;5032043;28;23776;-59
2023/08/06 09:30:36;;;;;;;1.25;1.08;;;29.00;63.10;;;;;;5019827;28;24061;-59
2023/08/06 09:33:03;;;;;;;3.53;1.05;;;28.80;66.30;;;;;;5036824;28;23978;-59
2023/08/06 09:35:31;;;;;;;3.08;1.10;;;28.70;62.10;;;;;;5010269;28;24271;-58
2023/08/06 09:38:17;;;;;;;5.18;1.08;;;28.80;67.80;;;;;;5011014;28;24782;-58
2023/08/06 09:40:43;;;;;;;3.47;0.90;;;28.60;60.00;;;;;;5041850;28;24444;-59
2023/08/06 09:43:11;;;;;;;3.30;0.90;;;28.10;59.70;;;;;;5037939;28;24498;-58
2023/08/06 09:45:38;;;;;;;2.90;0.93;;;28.10;62.10;;;;;;5049640;28;24555;-58
2023/08/06 09:48:05;;;;;;;1.25;1.10;;;27.20;63.70;;;;;;5028034;28;24665;-58
2023/08/06 09:50:33;;;;;;;2.85;1.42;;;27.40;67.60;;;;;;5026721;28;24688;-59
2023/08/06 09:53:04;;;;;;;1.40;1.17;;;27.30;64.00;;;;;;5028643;28;24642;-59
2023/08/06 09:55:31;;;;;;;1.67;1.00;;;27.10;66.90;;;;;;4992243;28;24512;-59
2023/08/06 09:57:58;;;;;;;0.90;0.80;;;26.80;65.80;;;;;;5046393;28;24404;-58
2023/08/06 10:00:24;;;;;;;1.25;0.90;;;26.90;66.00;;;;;;5038974;28;24373;-59
2023/08/06 10:02:54;;;;;;;1.00;0.88;;;26.80;68.00;;;;;;5018760;28;24312;-59
2023/08/06 10:05:22;;;;;;;1.27;0.88;;;26.90;66.80;;;;;;5041828;28;24470;-59
2023/08/06 10:07:50;;;;;;;2.47;0.95;;;26.80;66.30;;;;;;5026846;28;24970;-59
2023/08/06 10:10:19;;;;;;;1.25;0.80;;;27.00;65.50;;;;;;5037342;28;34935;-58
2023/08/06 10:12:54;;;;;;;2.00;1.08;;;27.20;66.70;;;;;;5034053;28;35527;-58
2023/08/06 10:15:25;;;;;;;1.02;0.90;;;27.30;67.30;;;;;;5025881;28;37000;-58
2023/08/06 10:17:54;;;;;;;0.90;0.65;;;27.70;70.10;;;;;;5016966;28;38754;-58
2023/08/06 10:20:22;;;;;;;3.03;0.83;;;28.20;67.00;;;;;;5026177;28;39075;-58
2023/08/06 10:23:05;;;;;;;1.08;0.80;;;28.20;60.50;;;;;;5025010;28;40397;-58
2023/08/06 10:25:33;;;;;;;3.13;0.80;;;28.00;61.90;;;;;;5028673;28;41394;-58
2023/08/06 10:28:00;;;;;;;2.80;1.02;;;27.80;63.00;;;;;;5029526;28;42382;-58
2023/08/06 10:30:30;;;;;;;2.92;0.75;;;27.60;63.20;;;;;;5034860;28;43758;-59
2023/08/06 10:32:57;;;;;;;;;;;27.60;60.90;;;;;;5028554;28;24588;-56
2023/08/06 10:35:44;;;;;;;2.85;0.93;;;27.90;66.30;;;;;;5027281;28;46201;-56
2023/08/06 10:38:15;;;;;;;3.53;1.25;;;27.90;63.20;;;;;;5002545;28;48068;-56
2023/08/06 10:40:50;;;;;;;1.42;0.65;;;27.90;64.10;;;;;;5019463;28;48897;-58
2023/08/06 10:43:28;;;;;;;0.80;0.80;;;27.70;59.90;;;;;;5017831;28;49533;-60
2023/08/06 10:45:55;;;;;;;2.63;0.90;;;27.70;62.50;;;;;;5009838;28;49889;-58
2023/08/06 10:48:33;;;;;;;1.92;1.25;;;27.50;63.30;;;;;;5014555;28;49940;-58
2023/08/06 10:51:00;;;;;;;4.30;1.15;;;27.40;65.40;;;;;;5024799;28;49848;-58
2023/08/06 10:53:26;;;;;;;2.95;1.80;;;27.60;64.70;;;;;;5023214;28;63262;-58
2023/08/06 10:55:52;;;;;;;3.22;1.50;;;27.10;65.70;;;;;;5016721;28;84597;-59
2023/08/06 10:58:18;;;;;;;2.70;0.85;;;27.40;66.50;;;;;;5016649;28;49519;-58
2023/08/06 11:00:45;;;;;;;1.10;0.70;;;27.50;64.20;;;;;;5018685;28;25007;-58
2023/08/06 11:03:11;;;;;;;1.67;0.70;;;27.30;64.10;;;;;;4993380;28;24933;-58
2023/08/06 11:05:37;;;;;;;2.63;0.95;;;26.80;64.60;;;;;;5017753;28;49484;-58
2023/08/06 11:08:03;;;;;;;1.00;0.80;;;26.50;65.20;;;;;;5027717;28;25033;-58
2023/08/06 11:10:29;;;;;;;2.70;0.82;;;26.20;66.70;;;;;;5008692;28;48610;-58
2023/08/06 11:13:00;;;;;;;3.30;1.05;;;25.80;70.90;;;;;;5014506;28;42363;-59
2023/08/06 11:15:26;;;;;;;1.75;0.90;;;25.40;72.80;;;;;;5009455;28;48816;-59
2023/08/06 11:17:52;;;;;;;1.98;0.80;;;25.10;75.90;;;;;;5005478;28;43130;-58
2023/08/06 11:20:22;;;;;;;5.38;1.52;;;25.00;76.80;;;;;;5001828;28;43571;-59
2023/08/06 11:22:48;;;;;;;3.22;0.98;;;24.90;74.30;;;;;;4975730;28;43973;-58
2023/08/06 11:25:14;;;;;;;1.23;0.80;;;24.90;73.00;;;;;;4955569;28;45439;-58
2023/08/06 11:27:40;;;;;;;4.05;1.10;;;24.60;72.50;;;;;;4944764;28;45387;-58
2023/08/06 11:30:06;;;;;;;1.10;0.73;;;24.20;75.40;;;;;;4986741;28;24989;-58
2023/08/06 11:32:33;;;;;;;1.65;0.90;;;24.00;78.20;;;;;;4988433;28;45988;-58
2023/08/06 11:35:09;;;;;;;5.80;1.27;;;23.70;80.30;;;;;;4978835;28;46299;-59
2023/08/06 11:37:35;;;;;;;4.22;1.35;;;23.50;84.80;;;;;;5007519;28;46550;-59
2023/08/06 11:40:11;;;;;;;0.95;0.80;;;23.30;89.70;;;;;;4990507;28;47716;-59
2023/08/06 11:42:37;;;;;;;3.90;1.20;;;23.10;92.70;;;;;;4998258;28;24666;-58
2023/08/06 11:45:04;;;;;;;2.25;0.80;;;23.00;93.80;;;;;;4994531;28;24769;-58
2023/08/06 11:47:30;;;;;;;2.72;1.30;;;22.90;95.50;;;;;;4989317;28;24892;-58
2023/08/06 11:49:56;;;;;;;4.32;1.20;;;22.70;95.30;;;;;;4994829;28;24657;-58
2023/08/06 11:55:10;;;;;;;1.63;0.90;;;22.70;97.50;;;;;;5152621;27;20138;-57
2023/08/06 11:57:36;;;;;;;4.97;1.42;;;22.80;95.00;;;;;;5024737;27;1403897;-58
2023/08/06 12:00:04;;;;;;;2.50;1.17;;;22.50;94.80;;;;;;5069345;28;20045;-57
2023/08/06 12:02:42;;;;;;;1.77;0.60;;;21.90;96.30;;;;;;5036831;28;20044;-58
2023/08/06 12:05:15;;;;;;;;;;;21.20;99.10;;;;;;5055373;28;20526;-58
2023/08/06 12:07:47;;;;;;;1.35;0.47;;;20.90;99.90;;;;;;5055005;28;20264;-57
2023/08/06 12:10:14;;;;;;;3.90;0.80;;;20.80;99.90;;;;;;5027469;28;20046;-57
2023/08/06 12:12:40;;;;;;;2.80;1.13;;;21.00;99.90;;;;;;5066136;28;20053;-57
2023/08/06 12:15:08;;;;;;;5.65;0.82;;;20.80;99.90;;;;;;5060323;28;20055;-57
2023/08/06 12:17:35;;;;;;;2.85;0.77;;;20.50;99.90;;;;;;5086834;28;20381;-57
2023/08/06 12:20:05;;;;;;;2.63;1.13;;;20.20;99.90;;;;;;5076578;28;20040;-57
2023/08/06 12:22:34;;;;;;;5.05;1.20;;;19.90;99.90;;;;;;5065971;28;20368;-57
2023/08/06 12:25:02;;;;;;;5.55;1.35;;;19.70;99.90;;;;;;5081392;28;20045;-57
2023/08/06 12:27:28;;;;;;;7.05;1.48;;;19.80;99.90;;;;;;5077923;28;20127;-57
2023/08/06 12:29:54;;;;;;;8.15;1.75;;;19.80;99.90;;;;;;5081982;28;20055;-57
2023/08/06 12:32:20;;;;;;;9.07;1.48;;;19.70;99.90;;;;;;5064292;28;20126;-57
2023/08/06 12:34:46;;;;;;;2.67;1.00;;;19.80;99.90;;;;;;5081900;28;20153;-57
2023/08/06 12:37:12;;;;;;;11.15;1.48;;;19.70;99.90;;;;;;5077952;28;20068;-57
2023/08/06 12:39:38;;;;;;;2.17;0.60;;;19.70;99.90;;;;;;5081962;28;20066;-57
2023/08/06 12:42:06;;;;;;;5.53;0.82;;;19.60;99.90;;;;;;5082922;28;20033;-57
2023/08/06 12:44:32;;;;;;;12.25;2.10;;;19.50;99.90;;;;;;5064183;28;20053;-57
2023/08/06 12:46:58;;;;;;;18.02;3.63;;;19.50;99.90;;;;;;5033928;28;22489;-57
2023/08/06 12:49:26;;;;;;;25.40;3.15;;;19.50;99.90;;;;;;5030549;28;20104;-57